WetterOnline ( http://www.wetteronline.de )

Wetter aktuell Achtelsbach

Aktuelles Wetter: Tholey (398m)

6-stündlich | Neueste Meldungen
Ortszeit Temperatur Wetter
Sa, 21.04. 8:00 16.8° C fast wolkenlos
Sa, 21.04. 2:00 19.9° C leicht bewölkt
Fr, 20.04. 20:00 23.5° C wolkig
Fr, 20.04. 14:00 25.6° C leicht bewölkt
Fr, 20.04. 8:00 16.1° C leicht bewölkt
Fr, 20.04. 2:00 18.9° C wolkig
Do, 19.04. 20:00 22.8° C leicht bewölkt
Do, 19.04. 14:00 25.1° C wolkenlos
Ortszeit Temperatur Wetter
Sa, 21.04. 9:30 20.1° C fast wolkenlos
Sa, 21.04. 9:20 20.1° C fast wolkenlos
Sa, 21.04. 9:10 19.9° C leicht bewölkt
Sa, 21.04. 9:00 19.1° C fast wolkenlos
Sa, 21.04. 8:50 19.1° C fast wolkenlos
Sa, 21.04. 8:40 18.6° C wolkenlos
Sa, 21.04. 8:30 17.9° C fast wolkenlos
Sa, 21.04. 8:00 16.8° C fast wolkenlos
Sa, 21.04. 7:30 16.1° C wolkenlos
Sa, 21.04. 7:00 15.9° C leicht bewölkt
Sa, 21.04. 6:30 16.0° C leicht bewölkt
Ortszeit Relative Feuchte Sichtweite
Sa, 21.04. 8:00 66% 10 km
Sa, 21.04. 2:00 41% 55 km
Fr, 20.04. 20:00 35% 50 km
Fr, 20.04. 14:00 28% 40 km
Fr, 20.04. 8:00 49% 20 km
Fr, 20.04. 2:00 38% 65 km
Do, 19.04. 20:00 36% 40 km
Do, 19.04. 14:00 29% 26 km
Ortszeit Relative Feuchte Sichtweite
Sa, 21.04. 9:30 56% 13 km
Sa, 21.04. 9:20 56% -
Sa, 21.04. 9:10 58% -
Sa, 21.04. 9:00 59% 14 km
Sa, 21.04. 8:50 59% -
Sa, 21.04. 8:40 59% -
Sa, 21.04. 8:30 63% 10 km
Sa, 21.04. 8:00 66% 10 km
Sa, 21.04. 7:30 68% 8 km
Sa, 21.04. 7:00 68% 10 km
Sa, 21.04. 6:30 66% 12 km
Ortszeit Niederschlagsmenge Niederschlagsart
Sa, 21.04. 8:00 0.0 l/m2 in 12 Std. -
Sa, 21.04. 2:00 0.0 l/m2 in 6 Std. -
Fr, 20.04. 20:00 0.0 l/m2 in 12 Std. -
Fr, 20.04. 14:00 0.0 l/m2 in 6 Std. -
Fr, 20.04. 8:00 0.0 l/m2 in 12 Std. -
Fr, 20.04. 2:00 0.0 l/m2 in 6 Std. -
Do, 19.04. 20:00 0.0 l/m2 in 12 Std. -
Do, 19.04. 14:00 0.0 l/m2 in 6 Std. -
Ortszeit Niederschlagsmenge Niederschlagsart
Sa, 21.04. 9:30 0.0 l/m2 in 1 Std. -
Sa, 21.04. 9:20 keine Meldung -
Sa, 21.04. 9:10 keine Meldung -
Sa, 21.04. 9:00 0.0 l/m2 in 1 Std. -
Sa, 21.04. 8:50 keine Meldung -
Sa, 21.04. 8:40 keine Meldung -
Sa, 21.04. 8:30 0.0 l/m2 in 1 Std. -
Sa, 21.04. 8:00 0.0 l/m2 in 1 Std. -
Sa, 21.04. 7:30 0.0 l/m2 in 1 Std. -
Sa, 21.04. 7:00 0.0 l/m2 in 1 Std. -
Sa, 21.04. 6:30 0.0 l/m2 in 1 Std. -
Ortszeit Stärke Spitze Richtung
km/h Bft. km/h Grad Sektor
Sa, 21.04. 8:00 14 3 25 50° NO
Sa, 21.04. 2:00 14 3 22 30° NO
Fr, 20.04. 20:00 6 1 19 210° SW
Fr, 20.04. 14:00 6 1 19 220° SW
Fr, 20.04. 8:00 13 3 22 50° NO
Fr, 20.04. 2:00 13 3 20 50° NO
Do, 19.04. 20:00 13 3 30 70° O
Do, 19.04. 14:00 18 3 36 110° O
Ortszeit Stärke Spitze Richtung
km/h Bft. km/h Grad Sektor
Sa, 21.04. 9:30 11 2 18 70° O
Sa, 21.04. 9:20 11 2 - 70° O
Sa, 21.04. 9:10 11 2 - 70° O
Sa, 21.04. 9:00 9 2 19 60° NO
Sa, 21.04. 8:50 9 2 - 60° NO
Sa, 21.04. 8:40 9 2 - 60° NO
Sa, 21.04. 8:30 11 2 18 50° NO
Sa, 21.04. 8:00 14 3 22 50° NO
Sa, 21.04. 7:30 14 3 22 50° NO
Sa, 21.04. 7:00 14 3 22 50° NO
Sa, 21.04. 6:30 14 3 22 50° NO
Ortszeit Untergrenze Bedeckung Gattung
total tief tief mittel hoch
Sa, 21.04. 8:00 2100 m 1/8 1/8 - - -
Sa, 21.04. 2:00 3300 m 2/8 1/8 - - -
Fr, 20.04. 20:00 9000 m 8/8 0/8 - - -
Fr, 20.04. 14:00 3000 m 5/8 1/8 - - -
Fr, 20.04. 8:00 10500 m 3/8 0/8 - - -
Fr, 20.04. 2:00 10500 m 8/8 0/8 - - -
Do, 19.04. 20:00 3300 m 4/8 4/8 - - -
Do, 19.04. 14:00 - 0/8 0/8 - - -
Ortszeit Bedeckungsgrad in Achtel und Wolkenuntergrenze
Sa, 21.04. 9:30 1(2100m)
Sa, 21.04. 9:20 1(2100m)
Sa, 21.04. 9:10 2(2100m)
Sa, 21.04. 9:00 1(2100m)
Sa, 21.04. 8:50 1(2100m)
Sa, 21.04. 8:40 keine Wolken
Sa, 21.04. 8:30 1(2100m)
Sa, 21.04. 8:00 1(2100m)
Sa, 21.04. 7:30 1(2400m)
Sa, 21.04. 7:00 1(2700m)
Sa, 21.04. 6:30 2(3300m)
Ortszeit Luftdruck NN (hPa) Tendenz (hPa in 3 Std.)
Sa, 21.04. 8:00 1020 + 0,5
Sa, 21.04. 2:00 1020 - 0,6
Fr, 20.04. 20:00 1020 - 0,8
Fr, 20.04. 14:00 1022 - 0,9
Fr, 20.04. 8:00 1024 - 0,1
Fr, 20.04. 2:00 1025 - 0,5
Do, 19.04. 20:00 1024 - 0,2
Do, 19.04. 14:00 1025 - 0,9
Ortszeit Luftdruck NN (hPa) Tendenz (hPa in 3 Std.)
Sa, 21.04. 9:30 1020 + 0,7
Sa, 21.04. 9:20 1020 keine Meldung
Sa, 21.04. 9:10 1020 keine Meldung
Sa, 21.04. 9:00 1020 + 0,8
Sa, 21.04. 8:50 1020 keine Meldung
Sa, 21.04. 8:40 1020 keine Meldung
Sa, 21.04. 8:30 1020 + 0,7
Sa, 21.04. 8:00 1020 + 0,5
Sa, 21.04. 7:30 1020 + 0,1
Sa, 21.04. 7:00 1020 - 0,3
Sa, 21.04. 6:30 1020 - 0,6
Ortszeit Schneehöhe (cm)
Sa, 21.04. 8:00 -
Sa, 21.04. 2:00 -
Fr, 20.04. 20:00 -
Fr, 20.04. 14:00 0
Fr, 20.04. 8:00 0
Fr, 20.04. 2:00 0
Do, 19.04. 20:00 0
Do, 19.04. 14:00 0
Ortszeit Schneehöhe (cm)
Sa, 21.04. 9:30 -
Sa, 21.04. 9:20 -
Sa, 21.04. 9:10 -
Sa, 21.04. 9:00 -
Sa, 21.04. 8:50 -
Sa, 21.04. 8:40 -
Sa, 21.04. 8:30 -
Sa, 21.04. 8:00 -
Sa, 21.04. 7:30 -
Sa, 21.04. 7:00 -
Sa, 21.04. 6:30 -
Link zu dieser Seite / Seite empfehlen

Das Wetter in ...